| time (UTC) | temp C | wind direction | speed KPH | gust KPH | rain 1hr cm | rain 24hr cm | rain mn cm | humidity % | barometer mb |
| 20260503194956 | 22 | 316 | 8.0 | 14.5 | 0.00 | 0.00 | 0.00 | 49 | |
| 20260503194454 | 22 | 338 | 9.7 | 16.1 | 0.00 | 0.00 | 0.00 | 51 | |
| 20260503193949 | 22 | 320 | 12.9 | 16.1 | 0.00 | 0.00 | 0.00 | 50 | |
| 20260503193445 | 22 | 343 | 16.1 | 17.7 | 0.00 | 0.00 | 0.00 | 53 | |
| 20260503192940 | 22 | 268 | 16.1 | 16.1 | 0.00 | 0.00 | 0.00 | 52 | |
| 20260503192437 | 22 | 306 | 11.3 | 17.7 | 0.00 | 0.00 | 0.00 | 53 | |
| 20260503191933 | 21 | 288 | 14.5 | 17.7 | 0.00 | 0.00 | 0.00 | 54 | |
| 20260503191431 | 21 | 265 | 14.5 | 17.7 | 0.00 | 0.00 | 0.00 | 53 | |
| 20260503190927 | 21 | 310 | 14.5 | 17.7 | 0.00 | 0.00 | 0.00 | 54 | |
| 20260503190424 | 21 | 300 | 16.1 | 19.3 | 0.00 | 0.00 | 0.00 | 54 | |
| 20260503185921 | 21 | 332 | 9.7 | 19.3 | 0.00 | 0.00 | 0.00 | 55 | |
| 20260503185418 | 21 | 337 | 11.3 | 20.9 | 0.00 | 0.00 | 0.00 | 55 | |
| 20260503184916 | 21 | 312 | 9.7 | 17.7 | 0.00 | 0.00 | 0.00 | 57 | |
| 20260503184414 | 21 | 308 | 12.9 | 14.5 | 0.00 | 0.00 | 0.00 | 57 | |
| 20260503183910 | 20 | 0 | 6.4 | 9.7 | 0.00 | 0.00 | 0.00 | 58 | |
| 20260503183407 | 20 | 336 | 12.9 | 17.7 | 0.00 | 0.00 | 0.00 | 56 | |
| 20260503182904 | 20 | 336 | 9.7 | 22.5 | 0.00 | 0.00 | 0.00 | 58 | |
| 20260503182403 | 20 | 321 | 17.7 | 19.3 | 0.00 | 0.00 | 0.00 | 57 | |
| 20260503181859 | 20 | 346 | 11.3 | 14.5 | 0.00 | 0.00 | 0.00 | 61 | |
| 20260503181356 | 20 | 322 | 14.5 | 17.7 | 0.00 | 0.00 | 0.00 | 59 | |
| 20260503180853 | 20 | 339 | 9.7 | 17.7 | 0.00 | 0.00 | 0.00 | 59 | |
| 20260503180351 | 20 | 337 | 9.7 | 11.3 | 0.00 | 0.00 | 0.00 | 60 | |
| 20260503175847 | 20 | 325 | 9.7 | 17.7 | 0.00 | 0.00 | 0.00 | 60 | |
| 20260503175345 | 20 | 346 | 9.7 | 16.1 | 0.00 | 0.00 | 0.00 | 60 | |
| 20260503174840 | 20 | 274 | 8.0 | 12.9 | 0.00 | 0.00 | 0.00 | 60 | |
| 20260503174339 | 20 | 334 | 9.7 | 16.1 | 0.00 | 0.00 | 0.00 | 61 | |
| 20260503173839 | 20 | 350 | 4.8 | 11.3 | 0.00 | 0.00 | 0.00 | 59 | |
| 20260503173336 | 20 | 327 | 12.9 | 16.1 | 0.00 | 0.00 | 0.00 | 58 | |
| 20260503172833 | 20 | 331 | 8.0 | 14.5 | 0.00 | 0.00 | 0.00 | 60 | |
| 20260503172331 | 19 | 301 | 11.3 | 11.3 | 0.00 | 0.00 | 0.00 | 60 | |
| 20260503171831 | 19 | 358 | 6.4 | 8.0 | 0.00 | 0.00 | 0.00 | 60 | |
| 20260503171329 | 18 | 311 | 6.4 | 9.7 | 0.00 | 0.00 | 0.00 | 62 | |
| 20260503170826 | 18 | 351 | 4.8 | 11.3 | 0.00 | 0.00 | 0.00 | 64 | |
| 20260503170322 | 18 | 350 | 9.7 | 12.9 | 0.00 | 0.00 | 0.00 | 63 | |
| 20260503150715 | 15 | 337 | 1.6 | 3.2 | 0.00 | 0.00 | 0.00 | 77 | |
| 20260503150211 | 15 | 8 | 3.2 | 6.4 | 0.00 | 0.00 | 0.00 | 77 | |
| 20260503140135 | 10 | 26 | 1.6 | 4.8 | 0.00 | 0.00 | 0.00 | 90 | |
| 20260503131104 | 10 | 17 | 4.8 | 6.4 | 0.00 | 0.00 | 0.00 | 91 | |
| 20260503130602 | 10 | 73 | 3.2 | 4.8 | 0.00 | 0.00 | 0.00 | 91 | |
| 20260503110452 | 11 | 5 | 4.8 | 6.4 | 0.00 | 0.00 | 0.00 | 89 | |
| 20260503090344 | 12 | 73 | 3.2 | 6.4 | 0.00 | 0.00 | 0.00 | 83 | |
| 20260503081311 | 12 | 347 | 3.2 | 6.4 | 0.00 | 0.00 | 0.00 | 82 | |
| 20260503080807 | 12 | 76 | 3.2 | 6.4 | 0.00 | 0.00 | 0.00 | 83 | |
| 20260503080305 | 12 | 10 | 4.8 | 9.7 | 0.00 | 0.00 | 0.00 | 83 | |
| 20260503072741 | 13 | 316 | 0.0 | 3.2 | 0.00 | 0.00 | 0.00 | 79 | |
| 20260503072238 | 13 | 28 | 3.2 | 4.8 | 0.00 | 0.00 | 0.00 | 78 | |
| 20260503071734 | 13 | 62 | 3.2 | 6.4 | 0.00 | 0.00 | 0.00 | 77 | |
| 20260503071231 | 13 | 10 | 3.2 | 4.8 | 0.00 | 0.00 | 0.00 | 77 | |
| 20260503070728 | 13 | 16 | 1.6 | 4.8 | 0.00 | 0.00 | 0.00 | 77 | |
| 20260503070226 | 13 | 5 | 3.2 | 6.4 | 0.00 | 0.00 | 0.00 | 78 | |
| 20260503060156 | 16 | 21 | 4.8 | 6.4 | 0.00 | 0.00 | 0.00 | 64 | |
| 20260503054643 | 16 | 17 | 4.8 | 6.4 | 0.00 | 0.00 | 0.00 | 63 | |
| 20260503054141 | 16 | 13 | 6.4 | 6.4 | 0.00 | 0.00 | 0.00 | 63 | |
| 20260503053638 | 16 | 2 | 6.4 | 6.4 | 0.00 | 0.00 | 0.00 | 64 | |
| 20260503053137 | 16 | 10 | 6.4 | 6.4 | 0.00 | 0.00 | 0.00 | 65 | |
| 20260503052633 | 16 | 19 | 3.2 | 6.4 | 0.00 | 0.00 | 0.00 | 64 | |
| 20260503052129 | 17 | 9 | 4.8 | 6.4 | 0.00 | 0.00 | 0.00 | 62 | |
| 20260503051625 | 17 | 356 | 3.2 | 4.8 | 0.00 | 0.00 | 0.00 | 60 | |
| 20260503051123 | 17 | 5 | 3.2 | 4.8 | 0.00 | 0.00 | 0.00 | 59 | |
| 20260503050619 | 17 | 0 | 3.2 | 3.2 | 0.00 | 0.00 | 0.00 | 59 | |
| 20260503050116 | 17 | 43 | 3.2 | 4.8 | 0.00 | 0.00 | 0.00 | 59 | |
| 20260503045614 | 17 | 14 | 3.2 | 3.2 | 0.00 | 0.00 | 0.00 | 58 | |
| 20260503045110 | 17 | 10 | 3.2 | 4.8 | 0.00 | 0.00 | 0.00 | 58 | |
| 20260503044607 | 17 | 7 | 3.2 | 3.2 | 0.00 | 0.00 | 0.00 | 57 | |
| 20260503044105 | 17 | 353 | 3.2 | 3.2 | 0.00 | 0.00 | 0.00 | 56 | |
| 20260503043600 | 17 | 22 | 3.2 | 3.2 | 0.00 | 0.00 | 0.00 | 56 | |
| 20260503043058 | 17 | 1 | 3.2 | 4.8 | 0.00 | 0.00 | 0.00 | 56 | |
| 20260503042554 | 18 | 0 | 4.8 | 4.8 | 0.00 | 0.00 | 0.00 | 56 | |
| 20260503042050 | 18 | 358 | 3.2 | 4.8 | 0.00 | 0.00 | 0.00 | 56 | |
| 20260503041547 | 18 | 351 | 3.2 | 6.4 | 0.00 | 0.00 | 0.00 | 56 | |
| 20260503041045 | 18 | 359 | 3.2 | 4.8 | 0.00 | 0.00 | 0.00 | 55 | |
| 20260503040542 | 18 | 349 | 3.2 | 4.8 | 0.00 | 0.00 | 0.00 | 55 | |
| 20260503040039 | 18 | 3 | 4.8 | 4.8 | 0.00 | 0.00 | 0.00 | 54 | |
| 20260503035536 | 18 | 0 | 3.2 | 6.4 | 0.00 | 0.00 | 0.00 | 53 | |
| 20260503035034 | 18 | 345 | 4.8 | 6.4 | 0.00 | 0.00 | 0.00 | 52 | |
| 20260503034531 | 18 | 341 | 6.4 | 8.0 | 0.00 | 0.00 | 0.00 | 52 | |
| 20260503034028 | 18 | 342 | 4.8 | 8.0 | 0.00 | 0.00 | 0.00 | 52 | |
| 20260503033525 | 19 | 325 | 3.2 | 4.8 | 0.00 | 0.00 | 0.00 | 52 | |
| 20260503033023 | 19 | 342 | 4.8 | 8.0 | 0.00 | 0.00 | 0.00 | 51 | |
| 20260503032521 | 19 | 348 | 3.2 | 8.0 | 0.00 | 0.00 | 0.00 | 51 | |
| 20260503032019 | 20 | 353 | 4.8 | 6.4 | 0.00 | 0.00 | 0.00 | 50 | |
| 20260503031516 | 20 | 310 | 3.2 | 6.4 | 0.00 | 0.00 | 0.00 | 50 | |
| 20260503031013 | 20 | 332 | 3.2 | 6.4 | 0.00 | 0.00 | 0.00 | 50 | |
| 20260503030509 | 20 | 0 | 4.8 | 9.7 | 0.00 | 0.00 | 0.00 | 49 | |
| 20260503030007 | 20 | 335 | 4.8 | 9.7 | 0.00 | 0.00 | 0.00 | 48 | |
| 20260503025503 | 20 | 344 | 4.8 | 8.0 | 0.00 | 0.00 | 0.00 | 47 | |
| 20260503025001 | 21 | 317 | 9.7 | 9.7 | 0.00 | 0.00 | 0.00 | 47 | |
| 20260503024457 | 21 | 20 | 8.0 | 8.0 | 0.00 | 0.00 | 0.00 | 46 | |
| 20260503023954 | 21 | 322 | 8.0 | 8.0 | 0.00 | 0.00 | 0.00 | 46 | |
| 20260503023451 | 22 | 358 | 4.8 | 9.7 | 0.00 | 0.00 | 0.00 | 45 | |
| 20260503022948 | 21 | 336 | 3.2 | 8.0 | 0.00 | 0.00 | 0.00 | 46 | |
| 20260503022443 | 22 | 312 | 9.7 | 11.3 | 0.00 | 0.00 | 0.00 | 45 | |
| 20260503021939 | 22 | 326 | 9.7 | 14.5 | 0.00 | 0.00 | 0.00 | 45 | |
| 20260503021436 | 22 | 321 | 6.4 | 9.7 | 0.00 | 0.00 | 0.00 | 44 | |
| 20260503020933 | 22 | 314 | 6.4 | 9.7 | 0.00 | 0.00 | 0.00 | 44 | |
| 20260503020431 | 22 | 321 | 11.3 | 12.9 | 0.00 | 0.00 | 0.00 | 46 | |
| 20260503015927 | 22 | 317 | 8.0 | 9.7 | 0.00 | 0.00 | 0.00 | 46 | |
| 20260503015424 | 22 | 310 | 11.3 | 14.5 | 0.00 | 0.00 | 0.00 | 46 | |
| 20260503014920 | 22 | 330 | 9.7 | 12.9 | 0.00 | 0.00 | 0.00 | 46 | |
| 20260503014417 | 22 | 313 | 8.0 | 9.7 | 0.00 | 0.00 | 0.00 | 47 | |
| 20260503013915 | 22 | 332 | 14.5 | 14.5 | 0.00 | 0.00 | 0.00 | 47 | |
| 20260503013412 | 22 | 321 | 8.0 | 12.9 | 0.00 | 0.00 | 0.00 | 48 | |
| 20260503012909 | 22 | 299 | 6.4 | 11.3 | 0.00 | 0.00 | 0.00 | 49 | |
| 20260503012407 | 22 | 277 | 11.3 | 17.7 | 0.00 | 0.00 | 0.00 | 48 | |
| 20260503011903 | 22 | 341 | 6.4 | 16.1 | 0.00 | 0.00 | 0.00 | 49 | |
| 20260503011400 | 22 | 357 | 12.9 | 16.1 | 0.00 | 0.00 | 0.00 | 49 | |
| 20260503010856 | 22 | 318 | 16.1 | 20.9 | 0.00 | 0.00 | 0.00 | 48 | |
| 20260503010353 | 22 | 312 | 14.5 | 19.3 | 0.00 | 0.00 | 0.00 | 48 | |
| 20260503005850 | 22 | 328 | 9.7 | 12.9 | 0.00 | 0.00 | 0.00 | 49 | |
| 20260503005348 | 22 | 342 | 8.0 | 12.9 | 0.00 | 0.00 | 0.00 | 48 | |
| 20260503004844 | 22 | 312 | 11.3 | 16.1 | 0.00 | 0.00 | 0.00 | 49 | |
| 20260503004342 | 22 | 312 | 12.9 | 19.3 | 0.00 | 0.00 | 0.00 | 49 | |
| 20260503003839 | 22 | 333 | 9.7 | 17.7 | 0.00 | 0.00 | 0.00 | 48 | |
| 20260503003336 | 22 | 337 | 9.7 | 17.7 | 0.00 | 0.00 | 0.00 | 49 | |
| 20260503002833 | 22 | 318 | 9.7 | 19.3 | 0.00 | 0.00 | 0.00 | 49 | |
| 20260503002330 | 22 | 332 | 11.3 | 19.3 | 0.00 | 0.00 | 0.00 | 50 | |
| 20260503001826 | 22 | 331 | 9.7 | 20.9 | 0.00 | 0.00 | 0.00 | 50 | |
| 20260503001322 | 22 | 304 | 19.3 | 22.5 | 0.00 | 0.00 | 0.00 | 51 | |
| 20260503000820 | 21 | 322 | 17.7 | 25.7 | 0.00 | 0.00 | 0.00 | 51 | |
| 20260503000319 | 21 | 336 | 20.9 | 27.4 | 0.00 | 0.00 | 0.00 | 52 | |
| 20260502235814 | 21 | 351 | 14.5 | 24.1 | 0.00 | 0.00 | 0.00 | 52 | |
| 20260502235312 | 21 | 305 | 24.1 | 25.7 | 0.00 | 0.00 | 0.00 | 51 | |
| 20260502234808 | 22 | 335 | 19.3 | 19.3 | 0.00 | 0.00 | 0.00 | 51 | |
| 20260502234306 | 22 | 315 | 14.5 | 17.7 | 0.00 | 0.00 | 0.00 | 53 | |
| 20260502233801 | 22 | 317 | 16.1 | 22.5 | 0.00 | 0.00 | 0.00 | 53 | |
| 20260502233258 | 22 | 326 | 12.9 | 14.5 | 0.00 | 0.00 | 0.00 | 54 | |
| 20260502232755 | 22 | 335 | 14.5 | 17.7 | 0.00 | 0.00 | 0.00 | 53 | |
| 20260502232251 | 22 | 286 | 14.5 | 20.9 | 0.00 | 0.00 | 0.00 | 53 | |
| 20260502231748 | 22 | 293 | 17.7 | 22.5 | 0.00 | 0.00 | 0.00 | 54 | |
| 20260502231246 | 22 | 314 | 14.5 | 19.3 | 0.00 | 0.00 | 0.00 | 54 | |
| 20260502230744 | 22 | 336 | 8.0 | 22.5 | 0.00 | 0.00 | 0.00 | 54 | |
| 20260502230242 | 22 | 306 | 20.9 | 30.6 | 0.00 | 0.00 | 0.00 | 55 | |
| 20260502225738 | 21 | 327 | 12.9 | 17.7 | 0.00 | 0.00 | 0.00 | 55 | |
| 20260502225235 | 21 | 312 | 20.9 | 24.1 | 0.00 | 0.00 | 0.00 | 55 | |
| 20260502224731 | 21 | 324 | 14.5 | 25.7 | 0.00 | 0.00 | 0.00 | 55 | |
| 20260502224228 | 21 | 330 | 16.1 | 20.9 | 0.00 | 0.00 | 0.00 | 55 | |
| 20260502223726 | 21 | 326 | 17.7 | 20.9 | 0.00 | 0.00 | 0.00 | 56 | |
| 20260502223223 | 21 | 309 | 11.3 | 17.7 | 0.00 | 0.00 | 0.00 | 57 | |
| 20260502222721 | 21 | 321 | 17.7 | 20.9 | 0.00 | 0.00 | 0.00 | 55 | |
| 20260502222217 | 21 | 327 | 14.5 | 20.9 | 0.00 | 0.00 | 0.00 | 56 | |
| 20260502221714 | 21 | 301 | 16.1 | 20.9 | 0.00 | 0.00 | 0.00 | 56 | |
| 20260502221210 | 21 | 327 | 11.3 | 19.3 | 0.00 | 0.00 | 0.00 | 57 | |
| 20260502220706 | 21 | 329 | 16.1 | 20.9 | 0.00 | 0.00 | 0.00 | 56 | |
| 20260502220203 | 21 | 335 | 12.9 | 19.3 | 0.00 | 0.00 | 0.00 | 55 | |
| 20260502215700 | 20 | 2 | 12.9 | 20.9 | 0.00 | 0.00 | 0.00 | 57 | |
| 20260502215156 | 20 | 328 | 16.1 | 22.5 | 0.00 | 0.00 | 0.00 | 57 | |
| 20260502214654 | 20 | 318 | 19.3 | 20.9 | 0.00 | 0.00 | 0.00 | 56 | |
| 20260502214151 | 21 | 327 | 12.9 | 20.9 | 0.00 | 0.00 | 0.00 | 56 | |
| 20260502213648 | 21 | 334 | 14.5 | 20.9 | 0.00 | 0.00 | 0.00 | 55 | |
| 20260502213145 | 21 | 272 | 17.7 | 25.7 | 0.00 | 0.00 | 0.00 | 56 | |
| 20260502212644 | 21 | 274 | 12.9 | 20.9 | 0.00 | 0.00 | 0.00 | 56 | |
| 20260502212142 | 21 | 278 | 4.8 | 16.1 | 0.00 | 0.00 | 0.00 | 56 | |
| 20260502211637 | 21 | 330 | 19.3 | 20.9 | 0.00 | 0.00 | 0.00 | 55 | |
| 20260502211135 | 20 | 267 | 11.3 | 16.1 | 0.00 | 0.00 | 0.00 | 58 | |
| 20260502210632 | 20 | 309 | 22.5 | 25.7 | 0.00 | 0.00 | 0.00 | 58 | |
| 20260502210129 | 20 | 291 | 19.3 | 22.5 | 0.00 | 0.00 | 0.00 | 58 | |
| 20260502205626 | 20 | 304 | 16.1 | 24.1 | 0.00 | 0.00 | 0.00 | 58 | |
| 20260502205122 | 20 | 341 | 12.9 | 17.7 | 0.00 | 0.00 | 0.00 | 59 | |
| 20260502204619 | 20 | 308 | 12.9 | 24.1 | 0.00 | 0.00 | 0.00 | 60 | |
| 20260502204117 | 20 | 320 | 16.1 | 19.3 | 0.00 | 0.00 | 0.00 | 60 | |
| 20260502203614 | 20 | 330 | 14.5 | 25.7 | 0.00 | 0.00 | 0.00 | 61 | |
| 20260502203112 | 19 | 320 | 14.5 | 17.7 | 0.00 | 0.00 | 0.00 | 61 | |
| 20260502202607 | 19 | 344 | 14.5 | 25.7 | 0.00 | 0.00 | 0.00 | 62 | |
| 20260502202105 | 19 | 335 | 16.1 | 19.3 | 0.00 | 0.00 | 0.00 | 63 | |
| 20260502201601 | 19 | 287 | 24.1 | 27.4 | 0.00 | 0.00 | 0.00 | 63 | |
| 20260502201058 | 19 | 266 | 16.1 | 24.1 | 0.00 | 0.00 | 0.00 | 64 | |
| 20260502200553 | 18 | 333 | 12.9 | 16.1 | 0.00 | 0.00 | 0.00 | 65 | |
| 20260502200051 | 18 | 342 | 11.3 | 20.9 | 0.00 | 0.00 | 0.00 | 67 | |
| 20260502195549 | 18 | 347 | 16.1 | 17.7 | 0.00 | 0.00 | 0.00 | 66 |